sensor_id;sensor_type;location;lat;lon;timestamp;P1;P2;P0
58740;PMS7003;44512;53.046;18.604;2023-09-19T00:02:34;28;27;19
58740;PMS7003;44512;53.046;18.604;2023-09-19T00:13:02;29;25;18
58740;PMS7003;44512;53.046;18.604;2023-09-19T00:23:30;29;26;18
58740;PMS7003;44512;53.046;18.604;2023-09-19T00:33:59;28;24;18
58740;PMS7003;44512;53.046;18.604;2023-09-19T00:44:27;34;29;19
58740;PMS7003;44512;53.046;18.604;2023-09-19T00:54:55;30;27;19
58740;PMS7003;44512;53.046;18.604;2023-09-19T01:05:24;29;26;19
58740;PMS7003;44512;53.046;18.604;2023-09-19T01:36:49;35;29;20
58740;PMS7003;44512;53.046;18.604;2023-09-19T01:47:28;33;28;19
58740;PMS7003;44512;53.046;18.604;2023-09-19T02:08:16;32;28;20
58740;PMS7003;44512;53.046;18.604;2023-09-19T02:18:42;32;28;20
58740;PMS7003;44512;53.046;18.604;2023-09-19T02:29:10;33;28;20
58740;PMS7003;44512;53.046;18.604;2023-09-19T02:39:39;34;30;21
58740;PMS7003;44512;53.046;18.604;2023-09-19T02:50:07;31;28;18
58740;PMS7003;44512;53.046;18.604;2023-09-19T03:00:36;36;30;20
58740;PMS7003;44512;53.046;18.604;2023-09-19T03:11:04;35;29;21
58740;PMS7003;44512;53.046;18.604;2023-09-19T03:21:32;31;26;19
58740;PMS7003;44512;53.046;18.604;2023-09-19T03:32:01;24;22;17
58740;PMS7003;44512;53.046;18.604;2023-09-19T03:42:29;21;20;15
58740;PMS7003;44512;53.046;18.604;2023-09-19T03:52:57;14;13;9
58740;PMS7003;44512;53.046;18.604;2023-09-19T04:03:26;13;11;9
58740;PMS7003;44512;53.046;18.604;2023-09-19T04:13:54;11;9;7
58740;PMS7003;44512;53.046;18.604;2023-09-19T04:24:22;10;8;7
58740;PMS7003;44512;53.046;18.604;2023-09-19T04:34:51;9;8;6
58740;PMS7003;44512;53.046;18.604;2023-09-19T04:45:19;10;9;7
58740;PMS7003;44512;53.046;18.604;2023-09-19T04:55:51;11;10;8
58740;PMS7003;44512;53.046;18.604;2023-09-19T05:06:15;10;9;7
58740;PMS7003;44512;53.046;18.604;2023-09-19T05:16:44;11;9;7
58740;PMS7003;44512;53.046;18.604;2023-09-19T05:27:12;10;9;6
58740;PMS7003;44512;53.046;18.604;2023-09-19T05:37:40;13;11;7
58740;PMS7003;44512;53.046;18.604;2023-09-19T05:48:10;8;8;6
58740;PMS7003;44512;53.046;18.604;2023-09-19T05:58:37;8;7;5
58740;PMS7003;44512;53.046;18.604;2023-09-19T06:09:06;7;7;5
58740;PMS7003;44512;53.046;18.604;2023-09-19T06:19:34;8;6;5
58740;PMS7003;44512;53.046;18.604;2023-09-19T06:30:02;7;6;5
58740;PMS7003;44512;53.046;18.604;2023-09-19T06:40:31;8;6;4
58740;PMS7003;44512;53.046;18.604;2023-09-19T06:50:59;6;6;5
58740;PMS7003;44512;53.046;18.604;2023-09-19T07:01:27;12;12;9
58740;PMS7003;44512;53.046;18.604;2023-09-19T07:11:56;8;7;6
58740;PMS7003;44512;53.046;18.604;2023-09-19T07:22:26;7;6;5
58740;PMS7003;44512;53.046;18.604;2023-09-19T07:32:52;8;7;5
58740;PMS7003;44512;53.046;18.604;2023-09-19T07:43:21;7;7;6
58740;PMS7003;44512;53.046;18.604;2023-09-19T07:53:49;8;8;6
58740;PMS7003;44512;53.046;18.604;2023-09-19T08:04:17;11;8;5
58740;PMS7003;44512;53.046;18.604;2023-09-19T08:14:46;7;7;5
58740;PMS7003;44512;53.046;18.604;2023-09-19T08:25:17;9;9;7
58740;PMS7003;44512;53.046;18.604;2023-09-19T08:35:42;11;9;7
58740;PMS7003;44512;53.046;18.604;2023-09-19T08:46:11;11;9;8
58740;PMS7003;44512;53.046;18.604;2023-09-19T08:56:39;12;10;8
58740;PMS7003;44512;53.046;18.604;2023-09-19T09:07:11;13;10;8
58740;PMS7003;44512;53.046;18.604;2023-09-19T09:17:36;12;11;9
58740;PMS7003;44512;53.046;18.604;2023-09-19T09:28:04;11;9;7
58740;PMS7003;44512;53.046;18.604;2023-09-19T09:49:01;10;9;8
58740;PMS7003;44512;53.046;18.604;2023-09-19T10:10:01;9;9;7
58740;PMS7003;44512;53.046;18.604;2023-09-19T10:20:26;7;7;5
58740;PMS7003;44512;53.046;18.604;2023-09-19T10:30:54;7;6;5
58740;PMS7003;44512;53.046;18.604;2023-09-19T10:41:23;7;7;6
58740;PMS7003;44512;53.046;18.604;2023-09-19T10:57:08;7;5;4
58740;PMS7003;44512;53.046;18.604;2023-09-19T11:07:56;7;7;5
58740;PMS7003;44512;53.046;18.604;2023-09-19T11:18:19;5;5;4
58740;PMS7003;44512;53.046;18.604;2023-09-19T11:28:33;5;4;4
58740;PMS7003;44512;53.046;18.604;2023-09-19T11:39:01;5;3;3
58740;PMS7003;44512;53.046;18.604;2023-09-19T11:49:31;3;3;3
58740;PMS7003;44512;53.046;18.604;2023-09-19T11:59:58;5;4;3
58740;PMS7003;44512;53.046;18.604;2023-09-19T12:10:26;3;3;3
58740;PMS7003;44512;53.046;18.604;2023-09-19T12:20:55;4;4;3
58740;PMS7003;44512;53.046;18.604;2023-09-19T12:31:23;4;4;3
58740;PMS7003;44512;53.046;18.604;2023-09-19T12:41:52;3;3;3
58740;PMS7003;44512;53.046;18.604;2023-09-19T12:52:20;5;4;3
58740;PMS7003;44512;53.046;18.604;2023-09-19T13:23:45;4;2;2
58740;PMS7003;44512;53.046;18.604;2023-09-19T13:34:13;2;2;2
58740;PMS7003;44512;53.046;18.604;2023-09-19T13:44:41;2;2;2
58740;PMS7003;44512;53.046;18.604;2023-09-19T13:55:10;2;2;2
58740;PMS7003;44512;53.046;18.604;2023-09-19T14:05:38;1;1;1
58740;PMS7003;44512;53.046;18.604;2023-09-19T14:16:07;1;1;1
58740;PMS7003;44512;53.046;18.604;2023-09-19T14:26:35;3;3;3
58740;PMS7003;44512;53.046;18.604;2023-09-19T14:37:03;2;2;2
58740;PMS7003;44512;53.046;18.604;2023-09-19T14:47:32;3;3;2
58740;PMS7003;44512;53.046;18.604;2023-09-19T14:58:00;3;3;2
58740;PMS7003;44512;53.046;18.604;2023-09-19T15:08:28;3;3;2
58740;PMS7003;44512;53.046;18.604;2023-09-19T15:18:56;2;2;1
58740;PMS7003;44512;53.046;18.604;2023-09-19T15:29:25;3;3;2
58740;PMS7003;44512;53.046;18.604;2023-09-19T15:39:53;4;3;3
58740;PMS7003;44512;53.046;18.604;2023-09-19T15:50:21;4;3;3
58740;PMS7003;44512;53.046;18.604;2023-09-19T16:00:50;5;3;3
58740;PMS7003;44512;53.046;18.604;2023-09-19T16:11:18;5;5;4
58740;PMS7003;44512;53.046;18.604;2023-09-19T16:21:46;5;4;4
58740;PMS7003;44512;53.046;18.604;2023-09-19T16:32:15;4;3;3
58740;PMS7003;44512;53.046;18.604;2023-09-19T16:42:43;7;6;4
58740;PMS7003;44512;53.046;18.604;2023-09-19T16:53:11;4;4;4
58740;PMS7003;44512;53.046;18.604;2023-09-19T17:03:43;6;6;5
58740;PMS7003;44512;53.046;18.604;2023-09-19T17:14:08;5;5;4
58740;PMS7003;44512;53.046;18.604;2023-09-19T17:24:37;6;6;5
58740;PMS7003;44512;53.046;18.604;2023-09-19T17:35:05;7;6;5
58740;PMS7003;44512;53.046;18.604;2023-09-19T17:45:33;11;10;8
58740;PMS7003;44512;53.046;18.604;2023-09-19T17:56:05;10;8;7
58740;PMS7003;44512;53.046;18.604;2023-09-19T18:06:30;10;7;5
58740;PMS7003;44512;53.046;18.604;2023-09-19T18:16:58;9;7;6
58740;PMS7003;44512;53.046;18.604;2023-09-19T18:27:27;10;8;8
58740;PMS7003;44512;53.046;18.604;2023-09-19T18:37:55;11;8;6
58740;PMS7003;44512;53.046;18.604;2023-09-19T18:48:23;9;7;6
58740;PMS7003;44512;53.046;18.604;2023-09-19T18:58:52;10;9;7
58740;PMS7003;44512;53.046;18.604;2023-09-19T19:09:20;10;9;7
58740;PMS7003;44512;53.046;18.604;2023-09-19T19:19:49;11;8;5
58740;PMS7003;44512;53.046;18.604;2023-09-19T19:30:17;9;8;7
58740;PMS7003;44512;53.046;18.604;2023-09-19T19:40:45;10;9;7
58740;PMS7003;44512;53.046;18.604;2023-09-19T19:51:13;12;9;6
58740;PMS7003;44512;53.046;18.604;2023-09-19T20:01:42;10;9;8
58740;PMS7003;44512;53.046;18.604;2023-09-19T20:12:10;9;8;6
58740;PMS7003;44512;53.046;18.604;2023-09-19T20:22:38;10;7;5
58740;PMS7003;44512;53.046;18.604;2023-09-19T20:33:07;9;9;7
58740;PMS7003;44512;53.046;18.604;2023-09-19T20:43:35;9;8;6
58740;PMS7003;44512;53.046;18.604;2023-09-19T20:54:04;9;8;7
58740;PMS7003;44512;53.046;18.604;2023-09-19T21:04:32;9;9;6
58740;PMS7003;44512;53.046;18.604;2023-09-19T21:15:00;11;9;7
58740;PMS7003;44512;53.046;18.604;2023-09-19T21:25:29;9;7;7
58740;PMS7003;44512;53.046;18.604;2023-09-19T21:35:57;9;8;6
58740;PMS7003;44512;53.046;18.604;2023-09-19T21:46:25;9;9;6
58740;PMS7003;44512;53.046;18.604;2023-09-19T21:56:54;10;9;7
58740;PMS7003;44512;53.046;18.604;2023-09-19T22:07:22;12;9;7
58740;PMS7003;44512;53.046;18.604;2023-09-19T22:17:50;8;8;6
58740;PMS7003;44512;53.046;18.604;2023-09-19T22:28:19;9;8;7
58740;PMS7003;44512;53.046;18.604;2023-09-19T22:38:47;13;9;7
58740;PMS7003;44512;53.046;18.604;2023-09-19T22:49:15;13;8;6
58740;PMS7003;44512;53.046;18.604;2023-09-19T22:59:44;13;10;7
58740;PMS7003;44512;53.046;18.604;2023-09-19T23:10:12;12;10;7
58740;PMS7003;44512;53.046;18.604;2023-09-19T23:20:41;11;10;8
58740;PMS7003;44512;53.046;18.604;2023-09-19T23:31:09;10;9;6
58740;PMS7003;44512;53.046;18.604;2023-09-19T23:41:37;10;9;7
58740;PMS7003;44512;53.046;18.604;2023-09-19T23:52:06;10;9;6
